Time;durP1;ratioP1;P1;durP2;ratioP2;P2;SDS_P1;SDS_P2;PMS_P1;PMS_P2;Temp;Humidity;BMP_temperature;BMP_pressure;BME280_temperature;BME280_humidity;BME280_pressure;Samples;Min_cycle;Max_cycle;Signal;HPM_P1;HPM_P2
2022/01/20 00:02:19;;;;;;;;;;;4.10;95.40;;;;;;5086940;28;19928;-80
2022/01/20 00:04:50;;;;;;;;;;;4.10;95.50;;;;;;5096106;28;19955;-79
2022/01/20 00:07:33;;;;;;;;;;;4.00;95.50;;;;;;5095483;28;20047;-79
2022/01/20 00:25:52;;;;;;;;;;;4.00;95.70;;;;;;5082822;28;19935;-80
2022/01/20 00:26:41;;;;;;;;;;;4.00;95.70;;;;;;5086940;28;20023;-80
2022/01/20 00:29:13;;;;;;;;;;;4.00;95.70;;;;;;5086216;28;19924;-81
2022/01/20 00:31:47;;;;;;;;;;;3.90;95.70;;;;;;5088152;28;19979;-80
2022/01/20 00:34:17;;;;;;;;;;;3.90;95.80;;;;;;5089856;28;19935;-80
2022/01/20 00:39:29;;;;;;;;;;;3.90;95.80;;;;;;5089414;28;19935;-80
2022/01/20 00:41:56;;;;;;;;;;;3.90;95.90;;;;;;5089151;28;19928;-80
2022/01/20 00:44:23;;;;;;;;;;;3.90;95.90;;;;;;5089815;28;19932;-79
2022/01/20 00:46:50;;;;;;;;;;;3.90;95.90;;;;;;5087985;28;20388;-79
2022/01/20 00:49:17;;;;;;;;;;;3.90;95.90;;;;;;5092308;28;19935;-79
2022/01/20 00:51:43;;;;;;;;;;;3.90;95.90;;;;;;5090638;28;19928;-79
2022/01/20 00:54:10;;;;;;;;;;;3.90;96.00;;;;;;5086504;28;20415;-80
2022/01/20 00:56:38;;;;;;;;;;;3.80;96.00;;;;;;5090736;28;20398;-79
2022/01/20 00:59:04;;;;;;;;;;;3.80;96.00;;;;;;5088676;28;19928;-80
2022/01/20 01:01:31;;;;;;;;;;;3.80;96.00;;;;;;5089095;28;20414;-80
2022/01/20 01:03:57;;;;;;;;;;;3.80;96.10;;;;;;5088849;28;20383;-80
2022/01/20 01:06:37;;;;;;;;;;;3.80;96.10;;;;;;5088612;28;19928;-80
2022/01/20 01:09:04;;;;;;;;;;;3.80;96.10;;;;;;5087441;28;19935;-80
2022/01/20 01:11:31;;;;;;;;;;;3.80;96.20;;;;;;5091118;28;19928;-78
2022/01/20 01:14:00;;;;;;;;;;;3.70;96.20;;;;;;5088759;28;20149;-80
2022/01/20 01:16:39;;;;;;;;;;;3.70;96.20;;;;;;5088005;28;19936;-79
2022/01/20 01:22:13;;;;;;;;;;;3.70;96.30;;;;;;5081433;28;20004;-80
2022/01/20 01:24:38;;;;;;;;;;;3.70;96.20;;;;;;5082876;28;19940;-80
2022/01/20 01:27:04;;;;;;;;;;;3.70;96.30;;;;;;5087810;28;19934;-81
2022/01/20 01:29:51;;;;;;;;;;;3.70;96.30;;;;;;5091023;28;20405;-79
2022/01/20 01:32:22;;;;;;;;;;;3.70;96.30;;;;;;5084524;28;20253;-80
2022/01/20 01:34:51;;;;;;;;;;;3.70;96.40;;;;;;5087153;28;19963;-80
2022/01/20 01:37:37;;;;;;;;;;;3.70;96.40;;;;;;5084301;28;19928;-80
2022/01/20 01:40:05;;;;;;;;;;;3.70;96.40;;;;;;5083738;28;19933;-80
2022/01/20 01:42:38;;;;;;;;;;;3.70;96.40;;;;;;5091779;28;19933;-80
2022/01/20 01:45:10;;;;;;;;;;;3.70;96.40;;;;;;5087318;28;20513;-80
2022/01/20 01:47:37;;;;;;;;;;;3.60;96.40;;;;;;5090913;28;20002;-80
2022/01/20 01:50:04;;;;;;;;;;;3.60;96.40;;;;;;5088474;28;20342;-80
2022/01/20 01:52:30;;;;;;;;;;;3.70;96.40;;;;;;5094497;28;19932;-79
2022/01/20 01:54:57;;;;;;;;;;;3.60;96.40;;;;;;5085360;28;20347;-80
2022/01/20 01:57:24;;;;;;;;;;;3.60;96.50;;;;;;5086139;28;19935;-79
2022/01/20 01:59:51;;;;;;;;;;;3.60;96.50;;;;;;5092097;28;19932;-80
2022/01/20 02:02:19;;;;;;;;;;;3.60;96.50;;;;;;5085196;28;19934;-80
2022/01/20 02:04:46;;;;;;;;;;;3.60;96.50;;;;;;5085060;28;19928;-80
2022/01/20 02:18:35;;;;;;;;;;;3.60;96.60;;;;;;5102266;28;19931;-80
2022/01/20 02:21:01;;;;;;;;;;;3.60;96.60;;;;;;5092364;28;19928;-81
2022/01/20 02:23:28;;;;;;;;;;;3.60;96.60;;;;;;5095024;28;19932;-80
2022/01/20 02:25:54;;;;;;;;;;;3.60;96.60;;;;;;5091969;28;19935;-80
2022/01/20 02:28:21;;;;;;;;;;;3.60;96.70;;;;;;5090590;28;19935;-80
2022/01/20 02:30:48;;;;;;;;;;;3.60;96.60;;;;;;5091790;28;19933;-81
2022/01/20 02:33:17;;;;;;;;;;;3.50;96.70;;;;;;5086145;28;19928;-80
2022/01/20 02:35:44;;;;;;;;;;;3.60;96.70;;;;;;5090695;28;19931;-80
2022/01/20 02:38:16;;;;;;;;;;;3.50;96.70;;;;;;5089779;28;20005;-80
2022/01/20 02:46:12;;;;;;;;;;;3.50;96.70;;;;;;5087149;28;20704;-81
2022/01/20 02:48:38;;;;;;;;;;;3.50;96.70;;;;;;5090916;28;19927;-80
2022/01/20 02:51:05;;;;;;;;;;;3.50;96.70;;;;;;5089476;28;19928;-80
2022/01/20 02:53:33;;;;;;;;;;;3.50;96.80;;;;;;5092061;28;19981;-80
2022/01/20 02:55:59;;;;;;;;;;;3.50;96.80;;;;;;5088867;28;19972;-80
2022/01/20 02:58:26;;;;;;;;;;;3.50;96.80;;;;;;5094514;28;19936;-80
2022/01/20 03:00:53;;;;;;;;;;;3.50;96.90;;;;;;5090862;28;19928;-80
2022/01/20 03:03:20;;;;;;;;;;;3.50;96.90;;;;;;5087753;28;20011;-80
2022/01/20 03:05:46;;;;;;;;;;;3.50;96.90;;;;;;5100148;28;19940;-81
2022/01/20 03:08:13;;;;;;;;;;;3.50;96.90;;;;;;5094518;28;20521;-79
2022/01/20 03:10:41;;;;;;;;;;;3.50;96.90;;;;;;5090994;28;19946;-80
2022/01/20 03:13:08;;;;;;;;;;;3.50;96.90;;;;;;5090518;28;19928;-81
2022/01/20 03:15:35;;;;;;;;;;;3.50;97.00;;;;;;5088649;28;19940;-80
2022/01/20 03:18:02;;;;;;;;;;;3.50;97.00;;;;;;5091528;28;19998;-79
2022/01/20 03:20:28;;;;;;;;;;;3.50;97.30;;;;;;5085947;28;19927;-79
2022/01/20 03:22:55;;;;;;;;;;;3.50;97.00;;;;;;5091105;28;19928;-79
2022/01/20 03:25:21;;;;;;;;;;;3.50;97.00;;;;;;5091507;28;19932;-80
2022/01/20 03:27:49;;;;;;;;;;;3.50;97.00;;;;;;5089745;28;20497;-79
2022/01/20 03:30:16;;;;;;;;;;;3.50;97.30;;;;;;5092285;28;20366;-79
2022/01/20 03:32:42;;;;;;;;;;;3.50;97.00;;;;;;5084462;28;19971;-80
2022/01/20 03:35:11;;;;;;;;;;;3.40;97.00;;;;;;5090445;28;19938;-79
2022/01/20 03:37:38;;;;;;;;;;;3.50;97.00;;;;;;5091090;28;19935;-79
2022/01/20 03:40:05;;;;;;;;;;;3.50;97.00;;;;;;5086609;28;19973;-80
2022/01/20 03:42:32;;;;;;;;;;;3.50;97.00;;;;;;5089144;28;19932;-80
2022/01/20 03:45:00;;;;;;;;;;;3.40;97.10;;;;;;5087535;28;19935;-79
2022/01/20 03:47:26;;;;;;;;;;;3.40;97.00;;;;;;5089008;28;19985;-79
2022/01/20 03:50:06;;;;;;;;;;;3.50;97.10;;;;;;5086484;28;19924;-80
2022/01/20 03:52:32;;;;;;;;;;;3.40;97.10;;;;;;5088050;28;19959;-80
2022/01/20 03:54:59;;;;;;;;;;;3.40;97.10;;;;;;5084512;28;19932;-81
2022/01/20 03:57:26;;;;;;;;;;;3.50;97.10;;;;;;5088503;28;20414;-80
2022/01/20 03:59:52;;;;;;;;;;;3.40;97.10;;;;;;5090731;28;19924;-80
2022/01/20 04:02:20;;;;;;;;;;;3.40;97.10;;;;;;5086552;28;19928;-80
2022/01/20 04:04:47;;;;;;;;;;;3.40;97.20;;;;;;5090609;28;19935;-81
2022/01/20 04:07:13;;;;;;;;;;;3.40;97.10;;;;;;5092046;28;19932;-79
2022/01/20 04:09:40;;;;;;;;;;;3.40;97.20;;;;;;5092221;28;19935;-80
2022/01/20 04:12:08;;;;;;;;;;;3.40;97.10;;;;;;5087449;28;20023;-80
2022/01/20 04:14:36;;;;;;;;;;;3.40;97.20;;;;;;5095432;28;19935;-81
2022/01/20 04:17:04;;;;;;;;;;;3.40;97.10;;;;;;5095132;28;19932;-81
2022/01/20 04:19:33;;;;;;;;;;;3.40;97.10;;;;;;5092224;28;20478;-80
2022/01/20 04:22:00;;;;;;;;;;;3.50;97.20;;;;;;5089440;28;19973;-80
2022/01/20 04:24:27;;;;;;;;;;;3.40;97.10;;;;;;5092893;28;19935;-80
2022/01/20 04:26:54;;;;;;;;;;;3.40;97.10;;;;;;5092092;28;19928;-79
2022/01/20 04:29:20;;;;;;;;;;;3.40;97.10;;;;;;5095787;28;19928;-80
2022/01/20 04:31:48;;;;;;;;;;;3.40;97.20;;;;;;5092905;28;19931;-79
2022/01/20 04:34:15;;;;;;;;;;;3.40;97.20;;;;;;5089778;28;19979;-80
2022/01/20 04:36:45;;;;;;;;;;;3.40;97.20;;;;;;5094226;28;19932;-80
2022/01/20 04:39:14;;;;;;;;;;;3.40;97.20;;;;;;5087270;28;19939;-80
2022/01/20 04:41:41;;;;;;;;;;;3.40;97.20;;;;;;5091992;28;20430;-80
2022/01/20 04:44:12;;;;;;;;;;;3.40;97.20;;;;;;5091150;28;19946;-80
2022/01/20 04:46:45;;;;;;;;;;;3.40;97.30;;;;;;5085092;28;20448;-80
2022/01/20 04:57:02;;;;;;;;;;;3.40;97.30;;;;;;5092541;28;20022;-80
2022/01/20 04:57:29;;;;;;;;;;;3.40;97.30;;;;;;5092841;28;19935;-80
2022/01/20 04:59:55;;;;;;;;;;;3.40;97.40;;;;;;5091942;28;19950;-79
2022/01/20 05:02:25;;;;;;;;;;;3.40;97.40;;;;;;5088818;28;19970;-80
2022/01/20 05:04:51;;;;;;;;;;;3.40;97.40;;;;;;5096090;28;20680;-80
2022/01/20 05:07:22;;;;;;;;;;;3.40;97.40;;;;;;5089926;28;20690;-79
2022/01/20 05:09:50;;;;;;;;;;;3.40;97.40;;;;;;5095010;28;19959;-80
2022/01/20 05:12:23;;;;;;;;;;;3.40;97.40;;;;;;5091972;28;19928;-80
2022/01/20 05:14:49;;;;;;;;;;;3.40;97.40;;;;;;5089257;28;19989;-79
2022/01/20 05:17:16;;;;;;;;;;;3.40;97.40;;;;;;5087722;28;19928;-80
2022/01/20 05:19:42;;;;;;;;;;;3.40;97.40;;;;;;5093246;28;19985;-79
2022/01/20 05:22:09;;;;;;;;;;;3.40;97.40;;;;;;5091302;28;19928;-79
2022/01/20 05:24:37;;;;;;;;;;;3.40;97.40;;;;;;5091847;28;19932;-80
2022/01/20 05:27:04;;;;;;;;;;;3.40;97.40;;;;;;5085290;28;19936;-79
2022/01/20 05:29:30;;;;;;;;;;;3.40;97.40;;;;;;5100096;28;19932;-81
2022/01/20 05:31:57;;;;;;;;;;;3.40;97.50;;;;;;5085766;28;19947;-80
2022/01/20 05:34:23;;;;;;;;;;;3.40;97.50;;;;;;5088098;28;19936;-79
2022/01/20 05:36:50;;;;;;;;;;;3.40;97.40;;;;;;5084477;28;19936;-79
2022/01/20 05:39:17;;;;;;;;;;;3.40;97.40;;;;;;5090980;28;19935;-80
2022/01/20 05:41:45;;;;;;;;;;;3.40;97.50;;;;;;5088094;28;20338;-79
2022/01/20 05:44:11;;;;;;;;;;;3.40;97.50;;;;;;5086142;28;19935;-79
2022/01/20 05:46:43;;;;;;;;;;;3.40;97.50;;;;;;5082883;28;19990;-79
2022/01/20 05:49:10;;;;;;;;;;;3.40;97.50;;;;;;5085326;28;19928;-80
2022/01/20 05:51:37;;;;;;;;;;;3.40;97.50;;;;;;5084110;28;19932;-79
2022/01/20 05:54:04;;;;;;;;;;;3.40;97.50;;;;;;5082995;28;19932;-79
2022/01/20 05:56:30;;;;;;;;;;;3.40;97.50;;;;;;5083100;28;19928;-80
2022/01/20 05:58:59;;;;;;;;;;;3.40;97.50;;;;;;5091234;28;19969;-80
2022/01/20 06:01:26;;;;;;;;;;;3.40;97.60;;;;;;5082869;28;20021;-80
2022/01/20 06:03:52;;;;;;;;;;;3.40;97.50;;;;;;5092069;28;19928;-80
2022/01/20 06:06:19;;;;;;;;;;;3.40;97.60;;;;;;5086813;28;19932;-79
2022/01/20 06:08:45;;;;;;;;;;;3.40;97.60;;;;;;5090167;28;19935;-79
2022/01/20 06:11:12;;;;;;;;;;;3.30;97.60;;;;;;5086158;28;20355;-79
2022/01/20 06:13:39;;;;;;;;;;;3.30;97.60;;;;;;5092499;28;20669;-79
2022/01/20 06:16:07;;;;;;;;;;;3.40;97.60;;;;;;5085763;28;20381;-79
2022/01/20 06:18:34;;;;;;;;;;;3.30;97.60;;;;;;5093036;28;19932;-80
2022/01/20 06:21:00;;;;;;;;;;;3.30;97.60;;;;;;5086528;28;20443;-84
2022/01/20 06:23:27;;;;;;;;;;;3.30;97.60;;;;;;5090637;28;19932;-83
2022/01/20 06:25:54;;;;;;;;;;;3.30;97.60;;;;;;5087988;28;19943;-83
2022/01/20 06:28:21;;;;;;;;;;;3.40;97.60;;;;;;5091334;28;20403;-82
2022/01/20 06:30:48;;;;;;;;;;;3.30;97.60;;;;;;5097114;28;20230;-81
2022/01/20 06:33:15;;;;;;;;;;;3.30;97.60;;;;;;5091885;28;19927;-83
2022/01/20 06:35:42;;;;;;;;;;;3.30;97.60;;;;;;5088489;28;19935;-81
2022/01/20 06:38:09;;;;;;;;;;;3.30;97.60;;;;;;5088441;28;19928;-84
2022/01/20 06:40:35;;;;;;;;;;;3.30;97.60;;;;;;5086274;28;19935;-84
2022/01/20 06:43:02;;;;;;;;;;;3.30;97.60;;;;;;5082524;28;19928;-79
2022/01/20 06:45:29;;;;;;;;;;;3.30;97.60;;;;;;5080515;28;20005;-80
2022/01/20 06:47:55;;;;;;;;;;;3.30;97.80;;;;;;5084764;28;19936;-81
2022/01/20 06:50:23;;;;;;;;;;;3.20;97.90;;;;;;5097597;28;20016;-81
2022/01/20 06:52:50;;;;;;;;;;;3.20;98.10;;;;;;5083844;28;20197;-80
2022/01/20 06:55:16;;;;;;;;;;;3.20;98.00;;;;;;5085388;28;19932;-81
2022/01/20 06:57:43;;;;;;;;;;;3.20;98.10;;;;;;5093756;28;19961;-81
2022/01/20 07:00:11;;;;;;;;;;;3.20;98.10;;;;;;5094039;28;19935;-80
2022/01/20 07:02:38;;;;;;;;;;;3.20;98.10;;;;;;5086069;28;20403;-79
2022/01/20 07:05:05;;;;;;;;;;;3.20;98.10;;;;;;5085460;28;19939;-79
2022/01/20 07:07:33;;;;;;;;;;;3.20;98.10;;;;;;5082874;28;19932;-80
2022/01/20 07:09:59;;;;;;;;;;;3.20;98.10;;;;;;5084348;28;19932;-80
2022/01/20 07:12:26;;;;;;;;;;;3.20;98.10;;;;;;5081446;28;20396;-81
2022/01/20 07:14:53;;;;;;;;;;;3.20;98.10;;;;;;5083828;28;19932;-80
2022/01/20 07:17:19;;;;;;;;;;;3.20;98.10;;;;;;5070336;28;19940;-80
2022/01/20 07:19:46;;;;;;;;;;;3.20;98.10;;;;;;5091300;28;19932;-81
2022/01/20 07:22:13;;;;;;;;;;;3.20;98.10;;;;;;5082967;28;19928;-80
2022/01/20 07:24:40;;;;;;;;;;;3.20;98.10;;;;;;5078182;28;19928;-80
2022/01/20 07:27:08;;;;;;;;;;;3.20;98.10;;;;;;5082126;28;19981;-80
2022/01/20 07:29:35;;;;;;;;;;;3.20;98.00;;;;;;5082373;28;19932;-80
2022/01/20 07:32:03;;;;;;;;;;;3.20;98.00;;;;;;5080982;28;19928;-80
2022/01/20 07:34:29;;;;;;;;;;;3.20;98.10;;;;;;5089253;28;19932;-80
2022/01/20 07:36:56;;;;;;;;;;;3.20;98.10;;;;;;5082301;28;19932;-80
2022/01/20 07:39:22;;;;;;;;;;;3.20;98.10;;;;;;5085463;28;19936;-79
2022/01/20 07:41:50;;;;;;;;;;;3.20;98.10;;;;;;5080276;28;19970;-80
2022/01/20 07:44:19;;;;;;;;;;;3.20;98.10;;;;;;5079468;28;19928;-80
2022/01/20 07:46:46;;;;;;;;;;;3.20;98.20;;;;;;5082582;28;19934;-78
2022/01/20 07:49:13;;;;;;;;;;;3.20;98.50;;;;;;5087905;28;20006;-78
2022/01/20 07:51:39;;;;;;;;;;;3.20;98.20;;;;;;5083760;28;19928;-79
2022/01/20 07:54:06;;;;;;;;;;;3.20;98.20;;;;;;5081746;28;19927;-79
2022/01/20 07:56:32;;;;;;;;;;;3.20;98.30;;;;;;5084162;28;20387;-78
2022/01/20 07:59:00;;;;;;;;;;;3.20;98.30;;;;;;5086961;28;19927;-79
2022/01/20 08:01:27;;;;;;;;;;;3.20;98.30;;;;;;5086631;28;19928;-79
2022/01/20 08:03:53;;;;;;;;;;;3.20;98.30;;;;;;5085847;28;20513;-79
2022/01/20 08:06:20;;;;;;;;;;;3.20;98.30;;;;;;5088353;28;19928;-79
2022/01/20 08:08:49;;;;;;;;;;;3.20;98.30;;;;;;5083168;28;19932;-78
2022/01/20 08:11:15;;;;;;;;;;;3.20;98.30;;;;;;5095715;28;19971;-78
2022/01/20 08:13:42;;;;;;;;;;;3.20;98.30;;;;;;5088584;28;19997;-78
2022/01/20 08:16:10;;;;;;;;;;;3.20;98.30;;;;;;5084196;28;19928;-78
2022/01/20 08:18:36;;;;;;;;;;;3.30;98.30;;;;;;5088783;28;19935;-79
2022/01/20 08:21:03;;;;;;;;;;;3.30;98.30;;;;;;5089747;28;19928;-79
2022/01/20 08:23:30;;;;;;;;;;;3.30;98.30;;;;;;5089674;28;19928;-78
2022/01/20 08:25:56;;;;;;;;;;;3.30;98.30;;;;;;5088460;28;19928;-79
2022/01/20 08:28:23;;;;;;;;;;;3.30;98.20;;;;;;5086835;28;19928;-79
2022/01/20 08:30:50;;;;;;;;;;;3.30;98.20;;;;;;5088304;28;19928;-79
2022/01/20 08:33:18;;;;;;;;;;;3.30;98.20;;;;;;5086537;28;19985;-78
2022/01/20 08:35:45;;;;;;;;;;;3.30;98.20;;;;;;5090616;28;20392;-79
2022/01/20 08:38:11;;;;;;;;;;;3.30;98.20;;;;;;5086290;28;19929;-79
2022/01/20 08:40:38;;;;;;;;;;;3.30;98.20;;;;;;5087443;28;19935;-79
2022/01/20 08:43:06;;;;;;;;;;;3.30;98.20;;;;;;5088389;28;20131;-79
2022/01/20 08:45:34;;;;;;;;;;;3.30;98.20;;;;;;5086222;28;20523;-79
2022/01/20 08:48:01;;;;;;;;;;;3.30;98.20;;;;;;5086417;28;19927;-78
2022/01/20 08:50:30;;;;;;;;;;;3.30;98.20;;;;;;5089036;28;20087;-79
2022/01/20 08:52:57;;;;;;;;;;;3.30;98.20;;;;;;5087096;28;19979;-79
2022/01/20 08:55:26;;;;;;;;;;;3.30;98.20;;;;;;5085524;28;20457;-79
2022/01/20 08:57:53;;;;;;;;;;;3.30;98.20;;;;;;5086308;28;19928;-78
2022/01/20 09:00:20;;;;;;;;;;;3.30;98.20;;;;;;5088500;28;20012;-79
2022/01/20 09:02:47;;;;;;;;;;;3.30;98.20;;;;;;5083154;28;20026;-79
2022/01/20 09:05:13;;;;;;;;;;;3.30;98.20;;;;;;5082564;28;19943;-79
2022/01/20 09:07:41;;;;;;;;;;;3.30;98.20;;;;;;5086208;28;19928;-79
2022/01/20 09:10:08;;;;;;;;;;;3.40;98.20;;;;;;5076941;28;20292;-79
2022/01/20 09:15:31;;;;;;;;;;;3.40;98.20;;;;;;5084769;28;20518;-78
2022/01/20 09:17:58;;;;;;;;;;;3.30;98.20;;;;;;5080902;28;19938;-78
2022/01/20 09:20:25;;;;;;;;;;;3.30;98.10;;;;;;5086969;28;19981;-79
2022/01/20 09:22:55;;;;;;;;;;;3.40;98.20;;;;;;5085155;28;20346;-79
2022/01/20 09:25:22;;;;;;;;;;;3.40;98.10;;;;;;5084544;28;20434;-78
2022/01/20 09:27:50;;;;;;;;;;;3.40;98.10;;;;;;5087739;28;20308;-78
2022/01/20 09:30:19;;;;;;;;;;;3.40;98.50;;;;;;5086484;28;19924;-78
2022/01/20 09:32:56;;;;;;;;;;;3.40;98.10;;;;;;5085232;28;19974;-79
2022/01/20 09:35:22;;;;;;;;;;;3.40;98.10;;;;;;5086783;28;20409;-78
2022/01/20 09:37:49;;;;;;;;;;;3.40;98.10;;;;;;5085581;28;19963;-78
2022/01/20 09:40:17;;;;;;;;;;;3.40;98.10;;;;;;5086392;28;19935;-77
2022/01/20 09:42:43;;;;;;;;;;;3.40;98.10;;;;;;5085872;28;20387;-79
2022/01/20 09:45:10;;;;;;;;;;;3.40;98.10;;;;;;5082095;28;19985;-78
2022/01/20 09:47:37;;;;;;;;;;;3.40;98.10;;;;;;5082314;28;19935;-78
2022/01/20 09:50:04;;;;;;;;;;;3.50;98.20;;;;;;5084521;28;20090;-79
2022/01/20 09:52:30;;;;;;;;;;;3.50;98.20;;;;;;5083991;28;19938;-77
2022/01/20 09:54:57;;;;;;;;;;;3.50;98.20;;;;;;5090267;28;19939;-78
2022/01/20 09:57:25;;;;;;;;;;;3.50;98.20;;;;;;5086243;28;19936;-79
2022/01/20 09:59:53;;;;;;;;;;;3.50;98.20;;;;;;5085449;28;20005;-79
2022/01/20 10:02:19;;;;;;;;;;;3.50;98.20;;;;;;5083175;28;20011;-79
2022/01/20 10:04:46;;;;;;;;;;;3.60;98.20;;;;;;5086038;28;19963;-78
2022/01/20 10:07:13;;;;;;;;;;;3.60;98.20;;;;;;5084322;28;19932;-78
2022/01/20 10:09:42;;;;;;;;;;;3.60;98.20;;;;;;5082524;28;19932;-79
2022/01/20 10:12:10;;;;;;;;;;;3.60;98.10;;;;;;5082064;28;19939;-79
2022/01/20 10:14:41;;;;;;;;;;;3.60;98.10;;;;;;5082737;28;19936;-81
2022/01/20 10:17:15;;;;;;;;;;;3.70;98.10;;;;;;5083279;28;19952;-78
2022/01/20 10:19:42;;;;;;;;;;;3.70;98.10;;;;;;5086708;28;19928;-79
2022/01/20 10:22:11;;;;;;;;;;;3.70;98.10;;;;;;5085118;28;19940;-78
2022/01/20 10:24:37;;;;;;;;;;;3.70;98.00;;;;;;5085470;28;19931;-78
2022/01/20 10:27:08;;;;;;;;;;;3.70;98.00;;;;;;5089994;28;19928;-79
2022/01/20 10:29:35;;;;;;;;;;;3.70;97.90;;;;;;5084721;28;19928;-78
2022/01/20 10:32:03;;;;;;;;;;;3.70;97.90;;;;;;5080768;28;19928;-78
2022/01/20 10:34:31;;;;;;;;;;;3.70;97.80;;;;;;5089516;28;19935;-78
2022/01/20 10:36:59;;;;;;;;;;;3.80;97.80;;;;;;5086216;28;19935;-79
2022/01/20 10:39:27;;;;;;;;;;;3.80;97.80;;;;;;5079900;28;19934;-79
2022/01/20 10:41:57;;;;;;;;;;;3.80;97.80;;;;;;5081960;28;19966;-77
2022/01/20 10:44:24;;;;;;;;;;;3.70;97.70;;;;;;5082284;28;19928;-78
2022/01/20 10:46:51;;;;;;;;;;;3.80;97.70;;;;;;5082646;28;19936;-78
2022/01/20 10:49:20;;;;;;;;;;;3.80;97.80;;;;;;5081800;28;19932;-78
2022/01/20 10:51:56;;;;;;;;;;;3.80;97.80;;;;;;5094310;28;19927;-78
2022/01/20 10:54:23;;;;;;;;;;;3.80;97.70;;;;;;5085497;28;19936;-79
2022/01/20 10:56:51;;;;;;;;;;;3.80;97.80;;;;;;5087861;28;19977;-78
2022/01/20 10:59:18;;;;;;;;;;;3.80;97.70;;;;;;5084266;28;19928;-78
2022/01/20 11:01:57;;;;;;;;;;;3.80;97.70;;;;;;5081125;28;22281;-78
2022/01/20 11:04:25;;;;;;;;;;;3.80;97.80;;;;;;5080182;28;19935;-78
2022/01/20 11:06:55;;;;;;;;;;;3.80;97.80;;;;;;5081377;28;19981;-79
2022/01/20 11:09:22;;;;;;;;;;;3.80;97.80;;;;;;5082237;28;19928;-79
2022/01/20 11:11:49;;;;;;;;;;;3.80;97.80;;;;;;5082963;28;20393;-80
2022/01/20 11:14:16;;;;;;;;;;;3.80;97.80;;;;;;5087786;28;20315;-80
2022/01/20 11:16:43;;;;;;;;;;;3.80;97.80;;;;;;5079732;28;19932;-79
2022/01/20 11:19:19;;;;;;;;;;;3.90;97.80;;;;;;5083161;28;19928;-79
2022/01/20 11:21:48;;;;;;;;;;;3.90;97.80;;;;;;5093275;28;19935;-79
2022/01/20 11:24:18;;;;;;;;;;;3.80;97.70;;;;;;5080406;28;19935;-79
2022/01/20 11:26:49;;;;;;;;;;;3.80;97.70;;;;;;5081723;28;19928;-79
2022/01/20 11:29:16;;;;;;;;;;;3.90;97.70;;;;;;5080610;28;20203;-79
2022/01/20 11:31:43;;;;;;;;;;;3.80;97.60;;;;;;5081285;28;19927;-79
2022/01/20 11:34:13;;;;;;;;;;;3.80;97.60;;;;;;5088065;28;19981;-78
2022/01/20 11:36:40;;;;;;;;;;;3.80;97.60;;;;;;5084223;28;19936;-78
2022/01/20 11:39:08;;;;;;;;;;;3.80;97.50;;;;;;5080768;28;20009;-79
2022/01/20 11:41:36;;;;;;;;;;;3.80;97.50;;;;;;5082324;28;19935;-79
2022/01/20 11:44:08;;;;;;;;;;;3.80;97.40;;;;;;5081487;28;20001;-78
2022/01/20 11:46:38;;;;;;;;;;;3.80;97.40;;;;;;5090108;28;19928;-79
2022/01/20 11:49:07;;;;;;;;;;;3.70;97.40;;;;;;5080851;28;20419;-79
2022/01/20 11:51:42;;;;;;;;;;;3.80;97.40;;;;;;5091249;28;20285;-78
2022/01/20 11:54:11;;;;;;;;;;;3.70;97.30;;;;;;5083231;28;20307;-79
2022/01/20 11:56:41;;;;;;;;;;;3.70;97.30;;;;;;5080823;28;19975;-79
2022/01/20 11:59:08;;;;;;;;;;;3.80;97.30;;;;;;5086250;28;19939;-79
2022/01/20 12:01:45;;;;;;;;;;;3.70;97.30;;;;;;5084981;28;19927;-79
2022/01/20 12:04:11;;;;;;;;;;;3.70;97.30;;;;;;5082166;28;19928;-78
2022/01/20 12:06:41;;;;;;;;;;;3.70;97.30;;;;;;5085899;28;19935;-78
2022/01/20 12:09:08;;;;;;;;;;;3.70;97.30;;;;;;5083476;28;20022;-78
2022/01/20 12:11:37;;;;;;;;;;;3.70;97.30;;;;;;5082876;28;19932;-79
2022/01/20 12:14:04;;;;;;;;;;;3.70;97.30;;;;;;5086098;28;19981;-79
2022/01/20 12:16:30;;;;;;;;;;;3.70;97.60;;;;;;5082378;28;19939;-78
2022/01/20 12:18:58;;;;;;;;;;;3.70;97.30;;;;;;5092012;28;19927;-78
2022/01/20 12:21:25;;;;;;;;;;;3.70;97.30;;;;;;5092893;28;19994;-77
2022/01/20 12:23:52;;;;;;;;;;;3.70;97.30;;;;;;5092278;28;19932;-78
2022/01/20 12:26:19;;;;;;;;;;;3.60;97.30;;;;;;5095437;28;19939;-77
2022/01/20 12:28:47;;;;;;;;;;;3.60;97.30;;;;;;5088265;28;19929;-78
2022/01/20 12:31:14;;;;;;;;;;;3.60;97.30;;;;;;5085583;28;19931;-78
2022/01/20 12:33:45;;;;;;;;;;;3.70;97.30;;;;;;5077336;28;19928;-77
2022/01/20 12:36:13;;;;;;;;;;;3.60;97.30;;;;;;5092956;28;19996;-77
2022/01/20 12:38:39;;;;;;;;;;;3.60;97.30;;;;;;5090119;28;19928;-78
2022/01/20 12:41:07;;;;;;;;;;;3.60;97.30;;;;;;5087886;28;19988;-77
2022/01/20 12:43:35;;;;;;;;;;;3.60;97.30;;;;;;5089263;28;19932;-77
2022/01/20 12:46:03;;;;;;;;;;;3.60;97.30;;;;;;5087571;28;19935;-78
2022/01/20 12:48:29;;;;;;;;;;;3.60;97.30;;;;;;5088042;28;19932;-77
2022/01/20 12:50:59;;;;;;;;;;;3.60;97.20;;;;;;5095093;28;19928;-77
2022/01/20 12:53:36;;;;;;;;;;;3.60;97.30;;;;;;5092540;28;20001;-78
2022/01/20 12:56:04;;;;;;;;;;;3.60;97.30;;;;;;5081192;28;19934;-78
2022/01/20 12:58:30;;;;;;;;;;;3.60;97.30;;;;;;5089491;28;19932;-77
2022/01/20 13:00:58;;;;;;;;;;;3.60;97.30;;;;;;5088586;28;20441;-78
2022/01/20 13:03:34;;;;;;;;;;;3.60;97.30;;;;;;5087915;28;19928;-77
2022/01/20 13:06:01;;;;;;;;;;;3.60;97.30;;;;;;5091351;28;19936;-77
2022/01/20 13:08:32;;;;;;;;;;;3.60;97.30;;;;;;5086382;28;19928;-78
2022/01/20 13:11:02;;;;;;;;;;;3.60;97.30;;;;;;5090434;28;20337;-77
2022/01/20 13:13:28;;;;;;;;;;;3.60;97.30;;;;;;5084795;28;19928;-77
2022/01/20 13:15:55;;;;;;;;;;;3.60;97.30;;;;;;5091052;28;19932;-77
2022/01/20 13:18:21;;;;;;;;;;;3.60;97.30;;;;;;5083986;28;19932;-77
2022/01/20 13:20:55;;;;;;;;;;;3.60;97.30;;;;;;5098805;28;19928;-78
2022/01/20 13:26:05;;;;;;;;;;;3.60;97.30;;;;;;5089029;28;19931;-77
2022/01/20 13:28:32;;;;;;;;;;;3.60;97.30;;;;;;5099361;28;19939;-77
2022/01/20 13:31:12;;;;;;;;;;;3.60;97.30;;;;;;5092332;28;19928;-77
2022/01/20 13:33:39;;;;;;;;;;;3.60;97.30;;;;;;5087917;28;20491;-78
2022/01/20 13:36:07;;;;;;;;;;;3.60;97.30;;;;;;5078528;28;19932;-78
2022/01/20 13:38:37;;;;;;;;;;;3.60;97.30;;;;;;5078704;28;20093;-78
2022/01/20 13:41:07;;;;;;;;;;;3.60;97.30;;;;;;5078209;28;20427;-78
2022/01/20 13:46:19;;;;;;;;;;;3.60;97.30;;;;;;5085583;28;20254;-76
2022/01/20 13:48:46;;;;;;;;;;;3.60;97.30;;;;;;5086212;28;20127;-78
2022/01/20 13:51:17;;;;;;;;;;;3.60;97.30;;;;;;5083883;28;19928;-78
2022/01/20 13:53:43;;;;;;;;;;;3.60;97.60;;;;;;5087383;28;20669;-78
2022/01/20 13:56:10;;;;;;;;;;;3.60;97.30;;;;;;5086961;28;20129;-78
2022/01/20 13:58:37;;;;;;;;;;;3.60;97.30;;;;;;5084129;28;20688;-78
2022/01/20 14:01:08;;;;;;;;;;;3.60;97.20;;;;;;5090966;28;20172;-80
2022/01/20 14:03:35;;;;;;;;;;;3.60;97.30;;;;;;5091808;28;20125;-79
2022/01/20 14:06:01;;;;;;;;;;;3.60;97.20;;;;;;5090896;28;19932;-76
2022/01/20 14:08:30;;;;;;;;;;;3.60;97.20;;;;;;5086748;28;19928;-78
2022/01/20 14:10:57;;;;;;;;;;;3.60;97.20;;;;;;5092299;28;19931;-79
2022/01/20 14:13:24;;;;;;;;;;;3.60;97.10;;;;;;5088595;28;19932;-77
2022/01/20 14:15:52;;;;;;;;;;;3.60;97.00;;;;;;5084715;28;19943;-77
2022/01/20 14:18:21;;;;;;;;;;;3.60;96.90;;;;;;5084616;28;19971;-78
2022/01/20 14:20:48;;;;;;;;;;;3.60;96.80;;;;;;5094286;28;19981;-78
2022/01/20 14:23:15;;;;;;;;;;;3.60;96.70;;;;;;5079346;28;20305;-78
2022/01/20 14:25:46;;;;;;;;;;;3.60;96.60;;;;;;5082117;28;19935;-77
2022/01/20 14:28:12;;;;;;;;;;;3.60;96.50;;;;;;5082085;28;19931;-78
2022/01/20 14:30:39;;;;;;;;;;;3.60;96.30;;;;;;5077689;28;19928;-77
2022/01/20 14:33:07;;;;;;;;;;;3.70;93.60;;;;;;5081718;28;19928;-79
2022/01/20 14:35:34;;;;;;;;;;;3.90;92.90;;;;;;5084078;28;19928;-77
2022/01/20 14:38:01;;;;;;;;;;;4.10;95.60;;;;;;5082712;28;20131;-77
2022/01/20 14:40:27;;;;;;;;;;;4.40;96.10;;;;;;5080515;28;20586;-79
2022/01/20 14:42:55;;;;;;;;;;;4.60;95.80;;;;;;5085418;28;19928;-77
2022/01/20 14:45:22;;;;;;;;;;;4.70;95.60;;;;;;5089358;28;19940;-76
2022/01/20 14:47:52;;;;;;;;;;;4.80;95.40;;;;;;5086536;28;19928;-76
2022/01/20 14:50:19;;;;;;;;;;;4.80;95.30;;;;;;5081694;28;19928;-78
2022/01/20 14:52:46;;;;;;;;;;;4.90;95.20;;;;;;5085826;28;19981;-78
2022/01/20 14:55:13;;;;;;;;;;;4.90;95.10;;;;;;5081305;28;20327;-78
2022/01/20 14:57:39;;;;;;;;;;;4.90;94.90;;;;;;5088249;28;19932;-78
2022/01/20 15:00:09;;;;;;;;;;;4.90;94.70;;;;;;5078881;28;19928;-77
2022/01/20 15:02:36;;;;;;;;;;;4.90;94.70;;;;;;5081394;28;19977;-76
2022/01/20 15:05:02;;;;;;;;;;;4.90;94.80;;;;;;5086726;28;19927;-77
2022/01/20 15:07:29;;;;;;;;;;;5.00;94.80;;;;;;5084596;28;19936;-78
2022/01/20 15:09:56;;;;;;;;;;;5.00;94.80;;;;;;5084433;28;19935;-79
2022/01/20 15:12:22;;;;;;;;;;;4.90;94.70;;;;;;5084143;28;19932;-78
2022/01/20 15:14:49;;;;;;;;;;;4.90;94.70;;;;;;5090115;28;19928;-77
2022/01/20 15:17:17;;;;;;;;;;;4.90;94.60;;;;;;5086864;28;19938;-78
2022/01/20 15:19:44;;;;;;;;;;;4.90;94.50;;;;;;5087705;28;19932;-80
2022/01/20 15:22:10;;;;;;;;;;;5.00;94.50;;;;;;5090796;28;19932;-78
2022/01/20 15:24:37;;;;;;;;;;;5.00;94.50;;;;;;5076325;28;19932;-78
2022/01/20 15:27:04;;;;;;;;;;;4.90;94.40;;;;;;5082723;28;19932;-77